Time;durP1;ratioP1;P1;durP2;ratioP2;P2;SDS_P1;SDS_P2;PMS_P1;PMS_P2;Temp;Humidity;BMP_temperature;BMP_pressure;BME280_temperature;BME280_humidity;BME280_pressure;Samples;Min_cycle;Max_cycle;Signal;HPM_P1;HPM_P2
2024/04/09 00:02:24;;;;;;;3.50;1.17;;;;;;;;;;5323427;26;20281;-61
2024/04/09 00:04:51;;;;;;;4.53;2.10;;;;;;;;;;5322537;26;20273;-61
2024/04/09 00:07:21;;;;;;;6.87;2.70;;;;;;;;;;5322210;26;20750;-61
2024/04/09 00:09:51;;;;;;;4.57;1.77;;;;;;;;;;5324554;26;20264;-61
2024/04/09 00:12:25;;;;;;;10.33;1.40;;;;;;;;;;5324058;26;20276;-61
2024/04/09 00:14:51;;;;;;;4.77;1.20;;;;;;;;;;5321679;26;20245;-63
2024/04/09 00:17:25;;;;;;;10.27;1.77;;;;;;;;;;5346836;26;20233;-63
2024/04/09 00:19:51;;;;;;;3.47;1.37;;;;;;;;;;5342438;26;20284;-63
2024/04/09 00:22:23;;;;;;;4.70;1.57;;;;;;;;;;5346461;26;20245;-63
2024/04/09 00:24:49;;;;;;;4.60;1.37;;;;;;;;;;5346645;26;20229;-64
2024/04/09 00:27:18;;;;;;;6.80;1.30;;;;;;;;;;5326191;26;20677;-63
2024/04/09 00:29:47;;;;;;;5.67;2.03;;;;;;;;;;5342859;26;20242;-63
2024/04/09 00:32:16;;;;;;;4.43;2.00;;;;;;;;;;5345065;26;21209;-63
2024/04/09 00:34:42;;;;;;;8.23;1.53;;;;;;;;;;5346691;26;20272;-63
2024/04/09 00:37:14;;;;;;;3.87;1.67;;;;;;;;;;5346586;26;20277;-63
2024/04/09 00:39:41;;;;;;;8.43;2.17;;;;;;;;;;5344220;26;20237;-63
2024/04/09 00:42:10;;;;;;;6.60;1.77;;;;;;;;;;5344167;26;20301;-63
2024/04/09 00:44:37;;;;;;;5.30;1.67;;;;;;;;;;5346509;26;20233;-63
2024/04/09 00:47:09;;;;;;;1.93;1.70;;;;;;;;;;5345956;26;20222;-62
2024/04/09 00:49:36;;;;;;;6.53;2.13;;;;;;;;;;5344891;26;20230;-63
2024/04/09 00:52:05;;;;;;;6.60;1.97;;;;;;;;;;5345859;26;20226;-62
2024/04/09 00:54:32;;;;;;;6.80;1.73;;;;;;;;;;5341647;26;20237;-62
2024/04/09 00:57:01;;;;;;;3.10;2.30;;;;;;;;;;5346161;26;20691;-63
2024/04/09 00:59:27;;;;;;;3.17;1.40;;;;;;;;;;5345008;26;20284;-63
2024/04/09 01:01:57;;;;;;;3.23;1.40;;;;;;;;;;5345636;26;20864;-63
2024/04/09 01:04:26;;;;;;;4.40;1.43;;;;;;;;;;5346112;26;20260;-63
2024/04/09 01:06:55;;;;;;;1.33;1.03;;;;;;;;;;5343745;26;20684;-63
2024/04/09 01:09:21;;;;;;;2.87;1.73;;;;;;;;;;5344474;26;20237;-63
2024/04/09 01:11:50;;;;;;;6.03;1.50;;;;;;;;;;5326236;26;20280;-63
2024/04/09 01:14:16;;;;;;;2.53;1.40;;;;;;;;;;5327122;26;20292;-63
2024/04/09 01:16:45;;;;;;;2.23;1.13;;;;;;;;;;5346022;26;20245;-62
2024/04/09 01:19:11;;;;;;;5.97;1.30;;;;;;;;;;5338458;26;20238;-63
2024/04/09 01:21:43;;;;;;;2.13;1.77;;;;;;;;;;5345083;26;20858;-63
2024/04/09 01:24:12;;;;;;;7.93;1.77;;;;;;;;;;5311444;26;20218;-63
2024/04/09 01:26:41;;;;;;;5.50;2.93;;;;;;;;;;5311463;26;20222;-63
2024/04/09 01:29:07;;;;;;;4.50;1.20;;;;;;;;;;5310184;26;20726;-63
2024/04/09 01:31:36;;;;;;;5.37;1.90;;;;;;;;;;5313353;26;20237;-62
2024/04/09 01:34:04;;;;;;;7.87;1.60;;;;;;;;;;5340627;26;20631;-63
2024/04/09 01:36:34;;;;;;;14.27;4.03;;;;;;;;;;5345178;26;20238;-63
2024/04/09 01:39:00;;;;;;;2.07;1.37;;;;;;;;;;5344374;26;20237;-63
2024/04/09 01:41:31;;;;;;;3.43;1.90;;;;;;;;;;5345540;26;20737;-63
2024/04/09 01:43:58;;;;;;;6.17;2.50;;;;;;;;;;5342069;26;20554;-63
2024/04/09 01:46:27;;;;;;;5.87;2.20;;;;;;;;;;5345111;26;20234;-63
2024/04/09 01:48:53;;;;;;;10.27;1.50;;;;;;;;;;5344355;26;20651;-63
2024/04/09 01:51:22;;;;;;;9.20;1.40;;;;;;;;;;5340958;26;20237;-62
2024/04/09 01:53:49;;;;;;;5.33;2.13;;;;;;;;;;5339119;26;20230;-63
2024/04/09 01:56:18;;;;;;;9.10;1.83;;;;;;;;;;5345461;26;20291;-63
2024/04/09 01:58:47;;;;;;;11.77;1.70;;;;;;;;;;5341046;26;20233;-63
2024/04/09 02:01:16;;;;;;;4.93;1.67;;;;;;;;;;5345309;26;20284;-63
2024/04/09 02:03:42;;;;;;;7.87;1.70;;;;;;;;;;5345275;26;20255;-63
2024/04/09 02:06:12;;;;;;;10.93;1.93;;;;;;;;;;5310823;26;20260;-62
2024/04/09 02:08:38;;;;;;;5.40;1.73;;;;;;;;;;5309547;26;20249;-63
2024/04/09 02:11:12;;;;;;;4.30;1.40;;;;;;;;;;5333239;26;20343;-63
2024/04/09 02:13:40;;;;;;;2.33;1.30;;;;;;;;;;5342882;26;20275;-63
2024/04/09 02:16:12;;;;;;;5.57;1.50;;;;;;;;;;5345356;26;20276;-62
2024/04/09 02:18:38;;;;;;;7.70;1.40;;;;;;;;;;5343333;26;20236;-63
2024/04/09 02:21:09;;;;;;;4.70;1.20;;;;;;;;;;5345188;26;20213;-63
2024/04/09 02:23:36;;;;;;;8.00;1.90;;;;;;;;;;5342892;26;20613;-64
2024/04/09 02:26:05;;;;;;;8.13;2.23;;;;;;;;;;5344035;26;20238;-63
2024/04/09 02:28:31;;;;;;;5.23;1.30;;;;;;;;;;5343957;26;20280;-63
2024/04/09 02:31:00;;;;;;;5.17;1.37;;;;;;;;;;5344940;26;20666;-63
2024/04/09 02:33:29;;;;;;;13.20;1.40;;;;;;;;;;5344209;26;20234;-63
2024/04/09 02:35:59;;;;;;;5.90;1.50;;;;;;;;;;5333842;26;20772;-63
2024/04/09 02:38:25;;;;;;;2.67;1.50;;;;;;;;;;5329499;26;20233;-63
2024/04/09 02:40:54;;;;;;;3.40;1.90;;;;;;;;;;5343201;26;20335;-63
2024/04/09 02:43:21;;;;;;;7.20;1.50;;;;;;;;;;5344970;26;20230;-63
2024/04/09 02:45:50;;;;;;;10.03;1.87;;;;;;;;;;5344846;26;20233;-63
2024/04/09 02:48:16;;;;;;;7.13;1.23;;;;;;;;;;5333792;26;20569;-63
2024/04/09 02:50:55;;;;;;;5.80;1.40;;;;;;;;;;5344918;26;20230;-63
2024/04/09 02:53:21;;;;;;;3.93;1.30;;;;;;;;;;5344736;26;20221;-63
2024/04/09 02:55:50;;;;;;;6.20;1.73;;;;;;;;;;5344652;26;20221;-63
2024/04/09 02:58:16;;;;;;;4.43;1.10;;;21.80;75.20;;;;;;5343412;26;20233;-63
2024/04/09 03:00:45;;;;;;;4.00;1.17;;;21.80;76.20;;;;;;5321319;26;20646;-63
2024/04/09 03:03:11;;;;;;;6.23;1.00;;;21.80;76.20;;;;;;5340182;26;20741;-63
2024/04/09 03:05:39;;;;;;;4.30;1.23;;;21.70;76.80;;;;;;5344446;26;20264;-63
2024/04/09 03:08:09;;;;;;;2.97;1.60;;;21.70;76.50;;;;;;5343200;26;20737;-63
2024/04/09 03:10:38;;;;;;;5.33;2.27;;;21.70;76.00;;;;;;5340816;26;20277;-63
2024/04/09 03:13:05;;;;;;;4.07;1.27;;;21.70;77.10;;;;;;5339430;26;20269;-63
2024/04/09 03:15:34;;;;;;;5.70;1.37;;;21.60;78.10;;;;;;5342328;26;20229;-63
2024/04/09 03:18:00;;;;;;;3.40;1.30;;;21.50;78.70;;;;;;5342989;26;20339;-63
2024/04/09 03:20:29;;;;;;;2.33;1.40;;;21.40;77.60;;;;;;5341338;26;20704;-63
2024/04/09 03:22:55;;;;;;;3.63;1.43;;;21.40;78.30;;;;;;5340744;26;20234;-64
2024/04/09 03:25:26;;;;;;;1.77;1.10;;;21.40;78.80;;;;;;5341197;26;20265;-63
2024/04/09 03:27:56;;;;;;;2.90;0.90;;;21.30;78.40;;;;;;5343206;26;20705;-63
2024/04/09 03:30:24;;;;;;;2.13;1.27;;;21.40;78.00;;;;;;5343571;26;20238;-63
2024/04/09 03:32:51;;;;;;;3.80;1.80;;;21.40;79.30;;;;;;5343806;26;20218;-63
2024/04/09 03:35:20;;;;;;;1.57;1.13;;;21.40;78.30;;;;;;5340623;26;20340;-63
2024/04/09 03:37:49;;;;;;;4.40;1.60;;;21.30;77.80;;;;;;5343591;26;20269;-63
2024/04/09 03:40:18;;;;;;;2.00;0.97;;;21.30;77.20;;;;;;5347239;26;20218;-63
2024/04/09 03:42:50;;;;;;;3.13;1.33;;;21.30;77.70;;;;;;5346764;26;20225;-63
2024/04/09 03:45:16;;;;;;;3.27;1.00;;;21.30;77.80;;;;;;5347090;26;20214;-62
2024/04/09 03:47:45;;;;;;;4.07;2.13;;;21.30;77.90;;;;;;5342361;26;20290;-63
2024/04/09 03:50:11;;;;;;;3.20;1.43;;;21.20;78.10;;;;;;5342539;26;20250;-63
2024/04/09 03:52:40;;;;;;;1.83;1.33;;;21.20;78.00;;;;;;5347207;26;20247;-62
2024/04/09 03:55:06;;;;;;;3.37;1.03;;;21.10;78.20;;;;;;5347152;26;20257;-63
2024/04/09 03:57:35;;;;;;;3.93;1.27;;;21.00;79.10;;;;;;5347073;26;20748;-63
2024/04/09 04:00:04;;;;;;;2.27;1.80;;;20.90;79.10;;;;;;5327641;26;20280;-62
2024/04/09 04:02:34;;;;;;;2.47;1.03;;;20.90;79.90;;;;;;5346882;26;20573;-63
2024/04/09 04:05:00;;;;;;;2.23;1.23;;;20.80;80.00;;;;;;5346960;26;20625;-63
2024/04/09 04:07:28;;;;;;;5.20;1.43;;;20.70;80.50;;;;;;5344167;26;20242;-63
2024/04/09 04:09:54;;;;;;;1.63;1.10;;;20.60;81.10;;;;;;5345742;26;20237;-63
2024/04/09 04:12:23;;;;;;;1.43;1.10;;;20.50;81.50;;;;;;5344925;26;20283;-63
2024/04/09 04:14:49;;;;;;;1.80;1.30;;;20.40;82.00;;;;;;5346145;26;20276;-63
2024/04/09 04:17:20;;;;;;;2.00;1.20;;;20.30;82.30;;;;;;5346873;26;20218;-63
2024/04/09 04:19:46;;;;;;;2.20;1.33;;;20.20;81.10;;;;;;5345648;26;20767;-63
2024/04/09 04:22:15;;;;;;;2.80;1.90;;;20.30;79.50;;;;;;5346778;26;20225;-63
2024/04/09 04:24:41;;;;;;;4.73;1.20;;;20.30;79.80;;;;;;5342255;26;20586;-63
2024/04/09 04:27:10;;;;;;;7.53;1.63;;;20.30;79.90;;;;;;5342435;26;20733;-63
2024/04/09 04:29:36;;;;;;;1.30;1.07;;;20.30;80.30;;;;;;5345578;26;20687;-63
2024/04/09 04:32:05;;;;;;;3.07;1.60;;;20.20;80.70;;;;;;5345847;26;20787;-63
2024/04/09 04:34:33;;;;;;;3.60;1.10;;;20.20;79.90;;;;;;5346711;26;20218;-63
2024/04/09 04:37:02;;;;;;;4.30;2.00;;;20.20;80.00;;;;;;5339599;26;20246;-63
2024/04/09 04:39:28;;;;;;;3.83;1.37;;;20.10;80.10;;;;;;5331360;26;20351;-63
2024/04/09 04:41:58;;;;;;;3.23;1.50;;;20.10;80.30;;;;;;5346730;26;20229;-63
2024/04/09 04:44:25;;;;;;;8.03;1.80;;;20.20;82.20;;;;;;5333509;26;20757;-63
2024/04/09 04:46:53;;;;;;;9.53;2.47;;;20.20;82.40;;;;;;5329054;26;20319;-63
2024/04/09 04:49:19;;;;;;;17.00;3.27;;;20.20;83.50;;;;;;5338855;26;20737;-62
2024/04/09 04:51:52;;;;;;;9.63;2.43;;;20.10;84.00;;;;;;5336558;26;20230;-63
2024/04/09 04:54:18;;;;;;;11.00;2.80;;;20.10;85.90;;;;;;5346488;26;20280;-63
2024/04/09 04:56:46;;;;;;;9.67;3.03;;;19.90;87.50;;;;;;5334705;26;20241;-63
2024/04/09 04:59:12;;;;;;;19.43;3.50;;;19.80;87.70;;;;;;5332909;26;20860;-63
2024/04/09 05:01:41;;;;;;;16.70;3.40;;;19.90;87.90;;;;;;5346061;26;20294;-62
2024/04/09 05:04:07;;;;;;;13.70;3.07;;;19.80;88.50;;;;;;5340018;26;20624;-62
2024/04/09 05:06:57;;;;;;;13.23;2.60;;;19.70;88.00;;;;;;5345400;26;20233;-62
2024/04/09 05:09:23;;;;;;;13.07;3.47;;;19.60;87.50;;;;;;5329324;26;20241;-62
2024/04/09 05:11:52;;;;;;;8.87;2.63;;;19.50;86.40;;;;;;5340260;26;20241;-62
2024/04/09 05:14:18;;;;;;;16.53;2.50;;;19.50;86.80;;;;;;5344618;26;20237;-63
2024/04/09 05:16:46;;;;;;;11.03;2.67;;;19.40;87.40;;;;;;5320837;26;20229;-62
2024/04/09 05:19:12;;;;;;;13.60;3.13;;;19.50;85.50;;;;;;5313396;26;20277;-62
2024/04/09 05:21:41;;;;;;;12.27;3.07;;;19.50;87.60;;;;;;5311284;26;20227;-62
2024/04/09 05:24:12;;;;;;;32.03;6.17;;;19.50;88.00;;;;;;5323809;26;20234;-63
2024/04/09 05:26:41;;;;;;;18.60;3.20;;;19.40;88.50;;;;;;5336702;26;20335;-62
2024/04/09 05:29:07;;;;;;;10.03;2.40;;;19.30;89.60;;;;;;5328599;26;20242;-62
2024/04/09 05:31:35;;;;;;;19.50;4.07;;;19.20;90.00;;;;;;5343808;26;20272;-63
2024/04/09 05:34:03;;;;;;;15.43;3.17;;;19.10;90.60;;;;;;5363506;26;20279;-62
2024/04/09 05:36:32;;;;;;;20.10;5.80;;;19.20;90.50;;;;;;5323472;26;20288;-62
2024/04/09 05:38:58;;;;;;;18.43;2.97;;;19.20;90.10;;;;;;5323747;26;20242;-63
2024/04/09 05:41:29;;;;;;;17.03;4.40;;;19.20;89.80;;;;;;5327988;26;20234;-62
2024/04/09 05:43:55;;;;;;;12.57;2.97;;;19.20;90.40;;;;;;5325260;26;20234;-63
2024/04/09 05:46:24;;;;;;;13.03;2.80;;;19.20;90.10;;;;;;5328739;26;20287;-63
2024/04/09 05:48:50;;;;;;;11.10;1.97;;;19.20;90.10;;;;;;5332904;26;20573;-62
2024/04/09 05:51:19;;;;;;;12.10;3.43;;;19.20;90.30;;;;;;5333578;26;20284;-62
2024/04/09 05:53:45;;;;;;;17.30;2.20;;;19.30;91.10;;;;;;5331338;26;20227;-62
2024/04/09 05:56:13;;;;;;;16.07;2.97;;;19.40;90.80;;;;;;5322206;26;20791;-62
2024/04/09 05:58:42;;;;;;;11.20;2.73;;;19.40;90.40;;;;;;5328067;26;20583;-62
2024/04/09 06:01:11;;;;;;;9.63;2.30;;;19.40;91.40;;;;;;5328892;26;20289;-62
2024/04/09 06:03:37;;;;;;;13.23;3.30;;;19.30;91.60;;;;;;5310415;26;20230;-63
2024/04/09 06:06:06;;;;;;;12.73;2.60;;;19.30;91.60;;;;;;5319758;26;20835;-62
2024/04/09 06:08:32;;;;;;;8.83;2.73;;;19.30;91.60;;;;;;5323883;26;20756;-63
2024/04/09 06:11:03;;;;;;;15.20;2.37;;;19.40;91.60;;;;;;5329466;26;20340;-63
2024/04/09 06:13:29;;;;;;;14.97;2.90;;;19.40;91.40;;;;;;5331062;26;20260;-62
2024/04/09 06:16:00;;;;;;;11.83;2.30;;;19.50;91.60;;;;;;5362305;21;20273;-59
2024/04/09 06:18:26;;;;;;;13.37;3.60;;;19.60;92.40;;;;;;5327200;26;20238;-56
2024/04/09 06:20:55;;;;;;;14.73;3.47;;;19.70;92.90;;;;;;5339316;26;20237;-56
2024/04/09 06:23:21;;;;;;;31.17;3.30;;;19.80;93.20;;;;;;5328531;26;20279;-58
2024/04/09 06:25:55;;;;;;;14.30;3.90;;;20.00;93.70;;;;;;5316362;26;20292;-58
2024/04/09 06:28:21;;;;;;;18.47;2.53;;;20.30;93.00;;;;;;5273196;27;20576;-58
2024/04/09 06:30:50;;;;;;;10.47;2.00;;;20.70;92.60;;;;;;5274495;27;20240;-60
2024/04/09 06:33:19;;;;;;;10.93;2.80;;;21.00;92.40;;;;;;5274273;27;20235;-58
2024/04/09 06:35:48;;;;;;;13.00;2.80;;;21.40;91.80;;;;;;5274345;27;20579;-58
2024/04/09 06:38:16;;;;;;;12.40;3.43;;;21.80;91.80;;;;;;5301521;27;20281;-60
2024/04/09 06:40:46;;;;;;;20.73;3.47;;;22.10;91.50;;;;;;5304062;27;20242;-58
2024/04/09 06:43:12;;;;;;;10.33;2.30;;;22.30;91.10;;;;;;5307899;27;20277;-61
2024/04/09 06:45:41;;;;;;;11.47;2.63;;;22.70;91.50;;;;;;5308224;27;20266;-58
2024/04/09 06:48:07;;;;;;;9.83;2.63;;;22.80;91.40;;;;;;5306788;27;20235;-58
2024/04/09 06:50:38;;;;;;;17.93;2.80;;;22.60;91.40;;;;;;5308174;27;20286;-58
2024/04/09 06:53:04;;;;;;;17.20;3.40;;;22.70;92.50;;;;;;5300529;27;20400;-59
2024/04/09 06:55:33;;;;;;;14.53;2.40;;;22.60;92.10;;;;;;5300213;27;20665;-59
2024/04/09 06:58:00;;;;;;;9.30;2.43;;;22.40;92.20;;;;;;5304603;27;20269;-59
2024/04/09 07:00:29;;;;;;;12.93;3.10;;;22.30;92.70;;;;;;5298418;27;20232;-67
2024/04/09 07:03:04;;;;;;;9.87;2.43;;;22.40;92.80;;;;;;5287688;27;20537;-67
2024/04/09 07:05:32;;;;;;;21.27;1.93;;;22.40;93.10;;;;;;5307412;27;20234;-69
2024/04/09 07:08:03;;;;;;;12.80;3.47;;;22.20;92.80;;;;;;5306659;27;20690;-68
2024/04/09 07:10:32;;;;;;;18.47;3.97;;;22.10;93.70;;;;;;5276155;27;20271;-67
2024/04/09 07:12:58;;;;;;;10.40;3.10;;;22.30;94.00;;;;;;5278179;27;20231;-64
2024/04/09 07:15:28;;;;;;;17.10;2.40;;;22.10;95.20;;;;;;5309314;27;20234;-66
2024/04/09 07:17:57;;;;;;;18.63;3.80;;;22.20;97.40;;;;;;5306689;26;20231;-67
2024/04/09 07:20:26;;;;;;;14.93;2.37;;;22.10;97.70;;;;;;5309305;27;20336;-67
2024/04/09 07:22:52;;;;;;;7.70;2.13;;;22.10;97.80;;;;;;5310873;27;20281;-69
2024/04/09 07:25:23;;;;;;;15.50;2.97;;;22.10;98.00;;;;;;5310678;27;20230;-64
2024/04/09 07:27:49;;;;;;;10.30;2.37;;;22.30;97.90;;;;;;5309776;27;20281;-62
2024/04/09 07:30:18;;;;;;;13.00;2.03;;;22.10;98.70;;;;;;5278395;27;20239;-65
2024/04/09 07:32:44;;;;;;;14.57;2.23;;;21.90;98.90;;;;;;5289445;27;20223;-65
2024/04/09 07:35:12;;;;;;;15.00;3.13;;;21.80;99.40;;;;;;5273973;27;20232;-67
2024/04/09 07:37:38;;;;;;;11.60;2.53;;;21.60;99.30;;;;;;5277056;27;20235;-64
2024/04/09 07:40:10;;;;;;;14.67;2.47;;;21.20;99.90;;;;;;5275941;27;20243;-63
2024/04/09 07:42:39;;;;;;;12.20;2.33;;;21.10;99.90;;;;;;5276653;27;20270;-67
2024/04/09 07:45:09;;;;;;;15.63;3.47;;;21.30;99.90;;;;;;5276871;27;20342;-64
2024/04/09 07:47:36;;;;;;;11.70;3.00;;;21.20;99.90;;;;;;5282899;27;20230;-64
2024/04/09 07:50:09;;;;;;;11.07;2.27;;;21.50;99.90;;;;;;5309691;27;20298;-65
2024/04/09 07:52:38;;;;;;;15.03;3.57;;;21.50;99.90;;;;;;5310019;27;20273;-68
2024/04/09 07:55:11;;;;;;;11.50;2.57;;;21.30;99.90;;;;;;5310131;27;20273;-67
2024/04/09 07:57:42;;;;;;;18.03;2.50;;;20.80;99.90;;;;;;5297903;27;20230;-67
2024/04/09 08:00:17;;;;;;;11.43;2.07;;;20.60;99.90;;;;;;5311003;27;20235;-67
2024/04/09 08:02:43;;;;;;;11.63;2.60;;;20.50;99.90;;;;;;5310810;27;20663;-67
2024/04/09 08:05:12;;;;;;;7.37;1.90;;;20.90;99.90;;;;;;5308958;27;20303;-66
2024/04/09 08:07:39;;;;;;;9.73;1.90;;;21.60;99.90;;;;;;5310425;27;20734;-65
2024/04/09 08:10:11;;;;;;;12.07;2.40;;;22.10;99.90;;;;;;5308796;27;20281;-64
2024/04/09 08:12:46;;;;;;;12.10;2.03;;;22.40;99.90;;;;;;5310198;27;20570;-66
2024/04/09 08:15:15;;;;;;;13.20;2.67;;;22.10;99.90;;;;;;5276493;27;20235;-65
2024/04/09 08:17:42;;;;;;;19.47;2.60;;;21.10;99.90;;;;;;5276999;27;20759;-67
2024/04/09 08:20:11;;;;;;;8.30;1.50;;;20.80;99.90;;;;;;5284874;27;20290;-65
2024/04/09 08:22:37;;;;;;;18.23;2.07;;;20.10;99.90;;;;;;5297033;27;20243;-65
2024/04/09 08:25:07;;;;;;;9.73;2.20;;;20.10;99.90;;;;;;5308059;27;20234;-59
2024/04/09 08:27:34;;;;;;;14.33;2.13;;;20.70;99.90;;;;;;5274151;27;20231;-59
2024/04/09 08:30:06;;;;;;;7.37;0.90;;;21.30;99.90;;;;;;5271913;27;20265;-59
2024/04/09 08:32:33;;;;;;;6.37;1.53;;;21.30;99.90;;;;;;5286966;27;20801;-59
2024/04/09 08:35:01;;;;;;;3.07;0.63;;;20.70;99.90;;;;;;5278956;27;20291;-60
2024/04/09 08:37:27;;;;;;;12.53;1.90;;;20.30;99.90;;;;;;5291447;26;20647;-59
2024/04/09 08:39:57;;;;;;;7.50;0.87;;;19.70;99.90;;;;;;5281864;27;20291;-59
2024/04/09 08:42:23;;;;;;;3.23;0.80;;;20.00;99.90;;;;;;5291721;26;20311;-59
2024/04/09 08:44:55;;;;;;;1.30;0.40;;;20.20;99.90;;;;;;5286886;27;20274;-59
2024/04/09 08:47:24;;;;;;;2.90;0.70;;;19.80;99.90;;;;;;5283070;26;20243;-59
2024/04/09 08:49:53;;;;;;;2.70;0.50;;;19.70;99.90;;;;;;5285029;27;20278;-59
2024/04/09 08:52:21;;;;;;;5.10;0.40;;;19.30;99.90;;;;;;5276761;27;21243;-59
2024/04/09 08:54:50;;;;;;;5.43;1.60;;;19.10;99.90;;;;;;5276680;27;20266;-59
2024/04/09 08:57:18;;;;;;;3.70;0.37;;;18.70;99.90;;;;;;5303388;26;20243;-60
2024/04/09 08:59:47;;;;;;;1.40;0.33;;;18.70;99.90;;;;;;5275208;27;20231;-59
2024/04/09 09:02:14;;;;;;;9.50;0.97;;;18.60;99.90;;;;;;5293358;27;20274;-59
2024/04/09 09:04:47;;;;;;;1.03;0.57;;;19.00;99.90;;;;;;5310128;27;20238;-59
2024/04/09 09:07:14;;;;;;;7.73;0.53;;;19.20;99.90;;;;;;5309329;26;20310;-59
2024/04/09 09:09:43;;;;;;;1.53;0.53;;;19.00;99.90;;;;;;5306892;27;20328;-59
2024/04/09 09:12:09;;;;;;;4.00;0.63;;;19.00;99.90;;;;;;5310357;27;20231;-60
2024/04/09 09:14:40;;;;;;;8.00;0.33;;;18.40;99.90;;;;;;5309338;26;20234;-59
2024/04/09 09:17:09;;;;;;;4.27;1.57;;;18.30;99.90;;;;;;5309178;27;20238;-59
2024/04/09 09:19:38;;;;;;;5.20;0.30;;;18.40;99.90;;;;;;5308270;27;20738;-60
2024/04/09 09:22:09;;;;;;;1.50;0.67;;;18.40;99.90;;;;;;5309028;27;20273;-59
2024/04/09 09:24:38;;;;;;;8.83;0.50;;;18.50;99.90;;;;;;5309313;27;20261;-59
2024/04/09 09:27:05;;;;;;;2.93;0.20;;;18.10;99.90;;;;;;5306134;27;20230;-59
2024/04/09 09:29:35;;;;;;;8.33;0.43;;;18.10;99.90;;;;;;5308285;27;20328;-59
2024/04/09 09:32:02;;;;;;;21.87;0.83;;;17.80;99.90;;;;;;5309679;27;20227;-59
2024/04/09 09:34:39;;;;;;;1.80;0.23;;;17.80;99.90;;;;;;5273713;27;20711;-59
2024/04/09 09:37:09;;;;;;;3.77;0.40;;;17.80;99.90;;;;;;5274979;27;20286;-59
2024/04/09 09:39:39;;;;;;;1.70;0.33;;;17.80;99.90;;;;;;5292055;27;20234;-59
2024/04/09 09:42:06;;;;;;;7.87;0.43;;;17.70;99.90;;;;;;5309158;27;20230;-59
2024/04/09 09:44:38;;;;;;;2.87;0.20;;;17.60;99.90;;;;;;5309889;27;20594;-59
2024/04/09 09:47:05;;;;;;;3.80;0.47;;;17.40;99.90;;;;;;5299582;26;20235;-59
2024/04/09 09:49:34;;;;;;;7.50;0.37;;;17.00;99.90;;;;;;5274587;27;20273;-59
2024/04/09 09:52:01;;;;;;;0.23;0.20;;;16.50;99.90;;;;;;5308417;27;20601;-59
2024/04/09 09:54:32;;;;;;;3.10;0.20;;;16.20;99.90;;;;;;5309130;27;20753;-59
2024/04/09 09:57:05;;;;;;;3.40;0.30;;;16.00;99.90;;;;;;5309807;26;20234;-59
2024/04/09 09:59:37;;;;;;;0.97;0.30;;;16.00;99.90;;;;;;5289082;27;20235;-60
2024/04/09 10:02:05;;;;;;;1.80;0.20;;;16.00;99.90;;;;;;5275185;27;20228;-59
2024/04/09 10:04:34;;;;;;;0.30;0.20;;;16.10;99.90;;;;;;5299320;27;20410;-59
2024/04/09 10:07:02;;;;;;;1.17;0.20;;;16.00;99.90;;;;;;5274948;27;20290;-60
2024/04/09 10:09:44;;;;;;;0.37;0.10;;;15.90;99.90;;;;;;5274464;27;20854;-60
2024/04/09 10:12:20;;;;;;;0.93;0.10;;;15.90;99.90;;;;;;5275433;27;20278;-59
2024/04/09 10:14:57;;;;;;;0.53;0.20;;;15.90;99.90;;;;;;5276023;27;20337;-59
2024/04/09 10:17:27;;;;;;;1.93;0.60;;;15.80;99.90;;;;;;5275612;27;20243;-60
2024/04/09 10:19:56;;;;;;;2.00;0.50;;;15.70;99.90;;;;;;5282185;27;20239;-59
2024/04/09 10:22:22;;;;;;;2.43;0.20;;;15.50;99.90;;;;;;5308575;27;20234;-59
2024/04/09 10:24:56;;;;;;;7.40;0.43;;;15.60;99.90;;;;;;5308596;27;20633;-59
2024/04/09 10:27:22;;;;;;;2.30;0.10;;;15.60;99.90;;;;;;5308518;26;20254;-60
2024/04/09 10:29:54;;;;;;;2.13;0.20;;;15.60;99.90;;;;;;5306847;27;20604;-59
2024/04/09 10:32:24;;;;;;;0.20;0.10;;;15.70;99.90;;;;;;5307885;27;20234;-60
2024/04/09 10:34:53;;;;;;;0.67;0.40;;;15.70;99.90;;;;;;5305638;27;20242;-59
2024/04/09 10:37:19;;;;;;;0.10;0.10;;;15.60;99.90;;;;;;5289863;27;20580;-59
2024/04/09 10:39:48;;;;;;;1.50;0.10;;;15.50;99.90;;;;;;5308679;27;20226;-59
2024/04/09 10:42:20;;;;;;;1.10;0.10;;;15.30;99.90;;;;;;5309836;27;20335;-59
2024/04/09 10:44:49;;;;;;;0.27;0.10;;;15.00;99.90;;;;;;5310016;27;20226;-59
2024/04/09 10:47:15;;;;;;;0.73;0.10;;;14.80;99.90;;;;;;5305090;27;20234;-59
2024/04/09 10:49:44;;;;;;;0.00;0.00;;;14.80;99.90;;;;;;5289826;27;20734;-59
2024/04/09 10:52:10;;;;;;;1.33;0.10;;;14.60;99.90;;;;;;5305348;27;20362;-60
2024/04/09 10:54:39;;;;;;;0.40;0.10;;;14.70;99.90;;;;;;5296921;27;20276;-60
2024/04/09 10:57:05;;;;;;;0.83;0.10;;;14.50;99.90;;;;;;5308928;26;20242;-61
2024/04/09 10:59:38;;;;;;;1.00;0.10;;;14.30;99.90;;;;;;5307900;27;20301;-62
2024/04/09 11:02:06;;;;;;;1.30;0.10;;;14.20;99.90;;;;;;5307691;27;20991;-62
2024/04/09 11:04:36;;;;;;;0.60;0.20;;;14.20;99.90;;;;;;5289234;27;20228;-62
2024/04/09 11:07:05;;;;;;;0.50;0.13;;;13.90;99.90;;;;;;5290004;27;20230;-63
2024/04/09 11:09:34;;;;;;;1.03;0.10;;;13.80;99.90;;;;;;5308112;27;20229;-62
2024/04/09 11:12:01;;;;;;;2.63;0.97;;;13.70;99.90;;;;;;5309027;27;20234;-62
2024/04/09 11:14:30;;;;;;;0.80;0.30;;;13.80;99.90;;;;;;5308723;27;20840;-63
2024/04/09 11:16:59;;;;;;;1.13;0.20;;;13.70;99.90;;;;;;5309024;26;20272;-62
2024/04/09 11:19:29;;;;;;;0.60;0.20;;;13.60;99.90;;;;;;5290272;27;20297;-61
2024/04/09 11:21:55;;;;;;;1.07;0.10;;;13.70;99.90;;;;;;5275190;27;20239;-61
2024/04/09 11:24:24;;;;;;;0.30;0.20;;;13.60;99.90;;;;;;5278018;27;20307;-61
2024/04/09 11:26:50;;;;;;;13.43;0.40;;;13.50;99.90;;;;;;5285356;27;20315;-61
2024/04/09 11:29:22;;;;;;;1.20;0.20;;;13.50;99.90;;;;;;5289289;26;20233;-63
2024/04/09 11:31:49;;;;;;;1.50;0.57;;;13.30;99.90;;;;;;5287423;27;20230;-65
2024/04/09 11:34:32;;;;;;;0.07;0.07;;;13.00;99.90;;;;;;5291822;27;20275;-62
2024/04/09 11:36:59;;;;;;;1.03;0.20;;;12.80;99.90;;;;;;5308707;26;20238;-59
2024/04/09 11:39:28;;;;;;;2.03;0.17;;;12.70;99.90;;;;;;5305420;27;20232;-61
2024/04/09 11:41:54;;;;;;;1.90;0.23;;;12.60;99.90;;;;;;5309242;27;20279;-62
2024/04/09 11:44:24;;;;;;;1.70;0.10;;;12.60;99.90;;;;;;5275471;27;20237;-61
2024/04/09 11:46:50;;;;;;;0.00;0.00;;;12.40;99.90;;;;;;5296462;27;20235;-61
2024/04/09 11:49:19;;;;;;;0.30;0.00;;;12.30;99.90;;;;;;5307647;27;20244;-61
2024/04/09 11:51:48;;;;;;;0.97;0.00;;;12.20;99.90;;;;;;5308831;27;20620;-61
2024/04/09 11:54:16;;;;;;;1.07;0.30;;;12.00;99.90;;;;;;5305864;27;20287;-61
2024/04/09 11:56:42;;;;;;;0.13;0.07;;;12.00;99.90;;;;;;5308764;26;20230;-61
2024/04/09 11:59:11;;;;;;;1.60;0.20;;;12.00;99.90;;;;;;5307594;27;20283;-62
2024/04/09 12:01:37;;;;;;;0.27;0.20;;;12.00;99.90;;;;;;5286234;27;20232;-63
2024/04/09 12:04:06;;;;;;;0.10;0.10;;;11.90;99.90;;;;;;5311405;27;20287;-62
2024/04/09 12:06:32;;;;;;;1.17;0.20;;;11.80;99.90;;;;;;5311293;26;20235;-61
2024/04/09 12:09:03;;;;;;;1.03;0.10;;;11.80;99.90;;;;;;5310717;27;20287;-62
2024/04/09 12:11:29;;;;;;;0.93;0.10;;;11.90;99.90;;;;;;5311465;27;20241;-61
2024/04/09 12:13:58;;;;;;;0.67;0.10;;;12.00;99.90;;;;;;5311657;27;20224;-61
2024/04/09 12:16:24;;;;;;;0.80;0.17;;;11.80;99.90;;;;;;5310887;26;20296;-61
2024/04/09 12:18:53;;;;;;;0.20;0.20;;;11.60;99.90;;;;;;5309554;27;20281;-61
2024/04/09 12:21:19;;;;;;;0.10;0.10;;;11.40;99.90;;;;;;5310809;27;20484;-62
2024/04/09 12:23:47;;;;;;;0.10;0.10;;;11.30;99.90;;;;;;5311153;27;20277;-61
2024/04/09 12:26:16;;;;;;;0.57;0.10;;;11.40;99.90;;;;;;5307021;26;20388;-60
2024/04/09 12:28:45;;;;;;;0.00;0.00;;;11.30;99.90;;;;;;5299173;27;20309;-61
2024/04/09 12:31:11;;;;;;;0.10;0.10;;;11.20;99.90;;;;;;5277204;27;20237;-61
2024/04/09 12:33:39;;;;;;;7.30;0.27;;;11.30;99.90;;;;;;5310950;27;20296;-61
2024/04/09 12:36:06;;;;;;;3.20;0.20;;;11.40;99.90;;;;;;5311192;27;20308;-61
2024/04/09 12:38:35;;;;;;;1.50;0.20;;;11.40;99.90;;;;;;5309893;27;20229;-61
2024/04/09 12:41:01;;;;;;;0.10;0.10;;;11.50;99.90;;;;;;5311210;27;20581;-62
2024/04/09 12:43:32;;;;;;;0.30;0.10;;;11.50;99.90;;;;;;5327008;21;20807;-63
2024/04/09 12:45:58;;;;;;;0.10;0.10;;;11.60;99.90;;;;;;5328551;26;20758;-72
2024/04/09 12:48:27;;;;;;;0.10;0.10;;;11.70;99.90;;;;;;5331681;26;20735;-70
2024/04/09 12:50:53;;;;;;;0.10;0.10;;;11.80;99.90;;;;;;5339768;26;20373;-68
2024/04/09 12:53:22;;;;;;;2.27;0.10;;;11.90;99.90;;;;;;5318822;26;20343;-68
2024/04/09 12:55:48;;;;;;;0.20;0.20;;;11.80;99.90;;;;;;5321121;26;20237;-69
2024/04/09 12:58:18;;;;;;;0.03;0.03;;;11.60;99.90;;;;;;5310778;26;20234;-67
2024/04/09 13:00:47;;;;;;;0.80;0.10;;;11.60;99.90;;;;;;5311961;26;20652;-67
2024/04/09 13:03:16;;;;;;;0.10;0.00;;;11.70;99.90;;;;;;5312293;26;20269;-65
2024/04/09 13:05:42;;;;;;;0.10;0.10;;;11.60;99.90;;;;;;5326146;26;20272;-65
2024/04/09 13:08:10;;;;;;;0.10;0.10;;;11.70;99.90;;;;;;5310602;26;20230;-65
2024/04/09 13:10:37;;;;;;;0.10;0.00;;;11.70;99.90;;;;;;5326439;26;20274;-65
2024/04/09 13:13:07;;;;;;;1.47;0.20;;;11.70;99.90;;;;;;5312005;26;20792;-65
2024/04/09 13:15:33;;;;;;;0.07;0.07;;;11.70;99.90;;;;;;5311731;26;20236;-61